Ransomville, NY (14131)

2:34 PM EST on March 05, 2015 (GMT -0500)
KNYRANSO3 | Change Station
CLOSE
Current Station
Personal Weather Station
Location: Ransomville, NY
Elevation: 246 ft
Nearby Weather Stations

Elev 246 ft 43.29 °N, 78.93 °W | Updated 3 minutes ago

Mostly Cloudy
Mostly Cloudy
19.8 °F
Feels Like 20 °F
N
2.7
Wind Variable Wind from West

Today
High -- | Low -- °F
--% Chance of Precip.
Yesterday
High -- | Low -- °F
Precip. -- in
6:45 AM 6:09 PM
Full, 100% visible
Pressure 30.32 in
Visibility 7.0 miles
Clouds Few 1300 ft
Mostly Cloudy 2600 ft
Mostly Cloudy 3000 ft
Mostly Cloudy 24000 ft
Windchill 20 °F
Dew Point 8 °F
Humidity 60%
Rainfall in
Snow Depth Not available.
UV 2 out of 12
Pollen .50 out of 12
Air Quality Not available.
Flu Activity Not available.
SPECI KIAG 051924Z 31008KT 7SM -SN FEW013 BKN026 BKN030 BKN240 M12/M17 A3032 RMK AO2 P0000 T11171167 $

More Conditions Fewer Conditions

Pressure 30.32 in
Visibility 7.0 miles
Clouds Few 1300 ft
Mostly Cloudy 2600 ft
Mostly Cloudy 3000 ft
Mostly Cloudy 24000 ft
Windchill 20 °F
Dew Point 8 °F
Humidity 60%
Rainfall in
Snow Depth Not available.
UV 2 out of 12
Pollen .50 out of 12
Air Quality Not available.
Flu Activity Not available.
SPECI KIAG 051924Z 31008KT 7SM -SN FEW013 BKN026 BKN030 BKN240 M12/M17 A3032 RMK AO2 P0000 T11171167 $

More Conditions Fewer Conditions

10-Day Weather Forecast

Almanac

Astronomy

Mar. 05, 2015 Rise Set
Actual Time
Civil Twilight
Nautical Twilight
Astronomical Twilight
Moon
Length of Visible Light
Length of Day
Tomorrow will be .
, % of the Moon is Illuminated

Today's Extremes

State Highs State Lows

Community

WunderPhotos

Upload Photos

1,802,925 photos uploaded!

WunderBlogs® & News

Nearby

Air Quality

  Air Quality AQ Index Pollutant
Not available.

Snow Depth

Station Depth Elevation

Earthquake Activity

City Distance Mag. Time & Date
Minimum magnitude displayed is 2.5.

Coastal Water Temperatures

Place Temperature

Nearby Weather Stations